Time;durP1;ratioP1;P1;durP2;ratioP2;P2;SDS_P1;SDS_P2;PMS_P1;PMS_P2;Temp;Humidity;BMP_temperature;BMP_pressure;BME280_temperature;BME280_humidity;BME280_pressure;Samples;Min_cycle;Max_cycle;Signal;HPM_P1;HPM_P2
2023/09/19 00:00:49;;;;;;;0.60;0.60;;;;;;;10.66;100.00;99759.25;6128538;23;20073;-86
2023/09/19 00:03:18;;;;;;;0.50;0.50;;;;;;;10.70;100.00;99755.00;6128433;23;20079;-86
2023/09/19 00:05:47;;;;;;;0.50;0.50;;;;;;;10.76;100.00;99746.03;6093204;23;20032;-85
2023/09/19 00:08:22;;;;;;;0.50;0.50;;;;;;;10.84;100.00;99756.50;6093414;23;20023;-84
2023/09/19 00:10:49;;;;;;;0.60;0.60;;;;;;;10.84;100.00;99751.09;6071112;23;20453;-85
2023/09/19 00:13:16;;;;;;;0.50;0.50;;;;;;;10.82;100.00;99753.19;6093546;23;20022;-86
2023/09/19 00:15:50;;;;;;;0.50;0.50;;;;;;;10.77;100.00;99754.94;6093616;23;20038;-86
2023/09/19 00:18:24;;;;;;;0.50;0.50;;;;;;;10.72;100.00;99747.53;6092983;23;20074;-85
2023/09/19 00:20:51;;;;;;;0.57;0.57;;;;;;;10.71;100.00;99745.88;6092927;23;20026;-85
2023/09/19 00:23:20;;;;;;;0.50;0.50;;;;;;;10.72;100.00;99752.09;6092660;23;20023;-86
2023/09/19 00:25:48;;;;;;;0.60;0.60;;;;;;;10.76;100.00;99756.81;6093152;23;20030;-85
2023/09/19 00:28:17;;;;;;;0.52;0.52;;;;;;;10.79;100.00;99752.84;6092780;23;20026;-87
2023/09/19 00:30:51;;;;;;;0.60;0.60;;;;;;;10.81;100.00;99746.16;6093393;23;20089;-86
2023/09/19 00:33:20;;;;;;;;;;;;;;;10.88;100.00;99753.34;6093504;23;20459;-86
2023/09/19 00:35:49;;;;;;;0.50;0.50;;;;;;;10.92;100.00;99743.75;6098264;23;19921;-87
2023/09/19 00:38:17;;;;;;;0.50;0.50;;;;;;;10.98;100.00;99745.50;6128757;23;20026;-87
2023/09/19 00:40:45;;;;;;;0.50;0.50;;;;;;;11.06;100.00;99756.00;6129165;23;20032;-86
2023/09/19 00:43:13;;;;;;;0.50;0.50;;;;;;;11.07;100.00;99754.97;6154786;23;20022;-86
2023/09/19 00:45:43;;;;;;;0.50;0.50;;;;;;;11.09;100.00;99752.00;6129051;23;20104;-86
2023/09/19 00:48:14;;;;;;;0.50;0.50;;;;;;;11.13;100.00;99756.72;6153246;23;20358;-86
2023/09/19 00:50:43;;;;;;;0.40;0.40;;;;;;;11.14;100.00;99754.84;6128973;23;20453;-86
2023/09/19 00:53:14;;;;;;;0.50;0.50;;;;;;;11.15;100.00;99743.00;6129234;23;20378;-87
2023/09/19 00:55:42;;;;;;;0.50;0.50;;;;;;;11.14;100.00;99742.19;6129266;23;20018;-85
2023/09/19 00:58:10;;;;;;;0.60;0.60;;;;;;;11.13;100.00;99740.50;6154653;23;20021;-85
2023/09/19 01:00:38;;;;;;;0.50;0.50;;;;;;;11.16;100.00;99747.34;6153671;23;20331;-87
2023/09/19 01:03:06;;;;;;;0.43;0.43;;;;;;;11.16;100.00;99750.03;6154539;23;20049;-86
2023/09/19 01:05:34;;;;;;;0.50;0.50;;;;;;;11.17;100.00;99749.00;6128350;23;20402;-85
2023/09/19 01:08:01;;;;;;;0.50;0.50;;;;;;;11.14;100.00;99744.88;6154087;23;20027;-85
2023/09/19 01:10:33;;;;;;;0.40;0.40;;;;;;;11.13;100.00;99748.63;6154503;23;20481;-87
2023/09/19 01:13:15;;;;;;;0.50;0.50;;;;;;;11.10;100.00;99750.97;6130227;23;20069;-87
2023/09/19 01:16:26;;;;;;;0.50;0.50;;;;;;;11.03;100.00;99751.88;6153359;23;20496;-85
2023/09/19 01:19:21;;;;;;;0.50;0.50;;;;;;;10.90;100.00;99756.66;6128354;23;20021;-86
2023/09/19 01:22:17;;;;;;;0.60;0.60;;;;;;;10.80;100.00;99760.69;6154980;23;20024;-85
2023/09/19 01:25:11;;;;;;;0.50;0.50;;;;;;;10.73;100.00;99759.13;6128303;23;20030;-86
2023/09/19 01:28:01;;;;;;;0.60;0.60;;;;;;;10.67;100.00;99760.88;6154206;23;20397;-85
2023/09/19 01:30:32;;;;;;;0.50;0.50;;;;;;;10.61;100.00;99759.09;6155047;23;20025;-88
2023/09/19 01:33:03;;;;;;;0.50;0.50;;;;;;;10.61;100.00;99756.41;6154159;23;20503;-85
2023/09/19 01:35:32;;;;;;;0.50;0.50;;;;;;;10.60;100.00;99754.72;6154412;23;20021;-86
2023/09/19 01:37:59;;;;;;;0.50;0.50;;;;;;;10.55;100.00;99749.19;6154649;23;20052;-86
2023/09/19 01:40:27;;;;;;;0.50;0.50;;;;;;;10.53;100.00;99746.72;6128560;23;20047;-86
2023/09/19 01:43:01;;;;;;;0.50;0.50;;;;;;;10.54;100.00;99745.66;6154394;23;20018;-85
2023/09/19 01:45:49;;;;;;;0.60;0.60;;;;;;;10.53;100.00;99740.47;6128630;23;20053;-85
2023/09/19 01:48:52;;;;;;;0.52;0.52;;;;;;;10.51;100.00;99742.59;6105387;23;20029;-87
2023/09/19 01:51:57;;;;;;;0.60;0.60;;;;;;;10.52;100.00;99733.44;6128141;23;20112;-85
2023/09/19 01:54:27;;;;;;;0.60;0.60;;;;;;;10.52;100.00;99731.56;6135248;23;20017;-84
2023/09/19 01:57:14;;;;;;;0.60;0.60;;;;;;;10.55;100.00;99724.91;6155938;23;20029;-86
2023/09/19 01:59:46;;;;;;;0.50;0.50;;;;;;;10.55;100.00;99719.50;6128352;23;20093;-86
2023/09/19 02:02:14;;;;;;;0.60;0.60;;;;;;;10.56;100.00;99719.28;6079339;23;20022;-85
2023/09/19 02:04:44;;;;;;;0.60;0.60;;;;;;;10.54;100.00;99721.38;6103618;23;20056;-85
2023/09/19 02:07:12;;;;;;;0.60;0.60;;;;;;;10.51;100.00;99713.75;6152145;23;20021;-85
2023/09/19 02:09:39;;;;;;;0.50;0.50;;;;;;;10.54;100.00;99717.84;6154007;23;20025;-85
2023/09/19 02:12:07;;;;;;;0.55;0.55;;;;;;;10.56;100.00;99718.47;6153990;23;20022;-85
2023/09/19 02:14:35;;;;;;;0.57;0.57;;;;;;;10.54;100.00;99717.84;6127811;23;20028;-86
2023/09/19 02:17:06;;;;;;;0.60;0.60;;;;;;;10.56;100.00;99718.47;6153699;23;20022;-86
2023/09/19 02:19:34;;;;;;;0.60;0.60;;;;;;;10.59;100.00;99718.00;6153952;23;20032;-85
2023/09/19 02:22:07;;;;;;;0.60;0.60;;;;;;;10.58;100.00;99709.09;6153242;23;20026;-86
2023/09/19 02:24:42;;;;;;;0.60;0.60;;;;;;;10.55;100.00;99706.00;6127648;23;20026;-85
2023/09/19 02:27:12;;;;;;;0.50;0.50;;;;;;;10.51;100.00;99716.44;6153470;23;20104;-85
2023/09/19 02:29:40;;;;;;;0.50;0.50;;;;;;;10.52;100.00;99709.97;6152812;23;20085;-85
2023/09/19 02:32:11;;;;;;;0.50;0.50;;;;;;;10.49;100.00;99712.31;6103893;23;20025;-86
2023/09/19 02:34:41;;;;;;;0.60;0.60;;;;;;;10.51;100.00;99702.13;6127940;23;20022;-85
2023/09/19 02:37:10;;;;;;;0.50;0.50;;;;;;;10.54;100.00;99707.88;6153384;23;20021;-87
2023/09/19 02:39:37;;;;;;;0.50;0.50;;;;;;;10.55;100.00;99700.59;6103928;23;20025;-87
2023/09/19 02:42:05;;;;;;;0.60;0.60;;;;;;;10.53;100.00;99702.69;6129282;23;20032;-85
2023/09/19 02:44:33;;;;;;;0.60;0.60;;;;;;;10.51;100.00;99704.81;6129427;23;20021;-85
2023/09/19 02:47:01;;;;;;;0.60;0.60;;;;;;;10.52;100.00;99693.78;6162778;23;20025;-86
2023/09/19 02:49:28;;;;;;;0.60;0.60;;;;;;;10.52;100.00;99701.88;6137362;23;20056;-87
2023/09/19 02:51:58;;;;;;;0.60;0.60;;;;;;;10.49;100.00;99690.72;6137200;23;20030;-87
2023/09/19 02:54:28;;;;;;;0.60;0.60;;;;;;;10.58;100.00;99706.38;6159368;23;20021;-85
2023/09/19 02:56:55;;;;;;;0.60;0.60;;;;;;;10.57;100.00;99710.13;6159305;23;20029;-86
2023/09/19 02:59:37;;;;;;;0.50;0.50;;;;;;;10.53;100.00;99700.84;6135780;23;20354;-87
2023/09/19 03:02:05;;;;;;;0.60;0.60;;;;;;;10.54;100.00;99709.75;6136554;23;20021;-86
2023/09/19 03:04:35;;;;;;;0.50;0.50;;;;;;;10.54;100.00;99709.75;6129851;23;20022;-89
2023/09/19 03:07:02;;;;;;;0.50;0.50;;;;;;;10.53;100.00;99717.03;6128073;23;20025;-88
2023/09/19 03:09:31;;;;;;;0.55;0.55;;;;;;;10.50;100.00;99709.38;6154827;23;20022;-87
2023/09/19 03:12:01;;;;;;;0.50;0.50;;;;;;;10.56;100.00;99713.06;6153962;23;20028;-85
2023/09/19 03:14:30;;;;;;;0.50;0.50;;;;;;;10.60;100.00;99712.34;6151884;23;20022;-85
2023/09/19 03:16:59;;;;;;;0.50;0.50;;;;;;;10.61;100.00;99713.22;6127138;23;20029;-86
2023/09/19 03:19:27;;;;;;;0.50;0.50;;;;;;;10.64;100.00;99710.03;6127541;23;20104;-85
2023/09/19 03:21:57;;;;;;;0.50;0.50;;;;;;;10.64;100.00;99707.34;6103047;23;20029;-86
2023/09/19 03:24:24;;;;;;;0.60;0.60;;;;;;;10.61;100.00;99708.63;6102475;23;20033;-87
2023/09/19 03:26:52;;;;;;;0.50;0.50;;;;;;;10.64;100.00;99707.34;6127381;23;20108;-85
2023/09/19 03:29:20;;;;;;;0.47;0.47;;;;;;;10.64;100.00;99699.25;6127279;23;20512;-86
2023/09/19 03:31:51;;;;;;;0.50;0.50;;;;;;;10.62;100.00;99694.06;6079560;23;20085;-86
2023/09/19 03:34:19;;;;;;;0.50;0.50;;;;;;;10.66;100.00;99697.16;6127767;23;20028;-86
2023/09/19 03:36:46;;;;;;;0.60;0.60;;;;;;;10.67;100.00;99698.78;6127806;23;20056;-85
2023/09/19 03:39:18;;;;;;;0.60;0.60;;;;;;;10.66;100.00;99696.31;6128491;23;20044;-85
2023/09/19 03:41:50;;;;;;;0.60;0.60;;;;;;;10.70;100.00;99700.19;6130181;23;20049;-84
2023/09/19 03:44:18;;;;;;;0.60;0.60;;;;;;;10.72;100.00;99696.22;6131597;23;20104;-87
2023/09/19 03:46:51;;;;;;;0.50;0.50;;;;;;;10.68;100.00;99686.94;6132246;23;20037;-86
2023/09/19 03:49:21;;;;;;;0.55;0.55;;;;;;;10.74;100.00;99701.41;6085254;23;20032;-85
2023/09/19 03:51:51;;;;;;;0.60;0.60;;;;;;;10.77;100.00;99701.75;6109405;23;20606;-87
2023/09/19 03:54:21;;;;;;;0.50;0.50;;;;;;;10.75;100.00;99690.38;6132414;23;20028;-87
2023/09/19 03:56:56;;;;;;;0.60;0.60;;;;;;;10.80;100.00;99684.28;6130479;23;20434;-85
2023/09/19 03:59:29;;;;;;;0.50;0.50;;;;;;;10.87;100.00;99693.13;6156705;23;20021;-86
2023/09/19 04:01:58;;;;;;;0.50;0.50;;;;;;;10.90;100.00;99692.66;6155161;23;20029;-86
2023/09/19 04:04:25;;;;;;;0.50;0.50;;;;;;;10.89;100.00;99695.56;6128401;23;20101;-87
2023/09/19 04:06:55;;;;;;;0.50;0.50;;;;;;;10.91;100.00;99701.56;6131743;23;20045;-87
2023/09/19 04:09:23;;;;;;;0.60;0.60;;;;;;;10.96;100.00;99691.75;6158751;23;20933;-86
2023/09/19 04:11:50;;;;;;;0.50;0.50;;;;;;;10.97;100.00;99696.09;6159059;23;20446;-86
2023/09/19 04:14:18;;;;;;;0.60;0.60;;;;;;;10.99;100.00;99693.97;6133988;23;20029;-86
2023/09/19 04:16:45;;;;;;;0.60;0.60;;;;;;;11.00;100.00;99692.91;6133909;23;20043;-85
2023/09/19 04:19:14;;;;;;;0.50;0.50;;;;;;;11.05;100.00;99684.13;6105933;23;20080;-87
2023/09/19 04:21:42;;;;;;;0.60;0.60;;;;;;;11.10;100.00;99689.66;6129859;23;20026;-86
2023/09/19 04:24:10;;;;;;;0.50;0.50;;;;;;;11.13;100.00;99680.28;6133430;23;20104;-86
2023/09/19 04:26:37;;;;;;;0.60;0.60;;;;;;;11.17;100.00;99679.56;6131380;23;20068;-87
2023/09/19 04:29:06;;;;;;;0.60;0.60;;;;;;;11.21;100.00;99678.03;6129049;23;20026;-89
2023/09/19 04:31:33;;;;;;;0.52;0.52;;;;;;;11.18;100.00;99675.81;6156268;23;20080;-88
2023/09/19 04:34:05;;;;;;;0.60;0.60;;;;;;;11.28;100.00;99683.34;6131968;23;20449;-89
2023/09/19 04:36:32;;;;;;;0.60;0.60;;;;;;;11.35;99.87;99688.66;6159212;23;20051;-90
2023/09/19 04:39:07;;;;;;;0.60;0.60;;;;;;;11.37;98.95;99670.31;6131686;23;20108;-88
2023/09/19 04:41:36;;;;;;;0.50;0.50;;;;;;;11.38;98.47;99671.97;6159149;23;20489;-89
2023/09/19 04:44:05;;;;;;;0.60;0.60;;;;;;;11.44;98.09;99677.28;6132259;23;20025;-87
2023/09/19 04:46:34;;;;;;;0.60;0.60;;;;;;;11.46;97.76;99682.44;6072207;23;20022;-87
2023/09/19 04:49:04;;;;;;;0.60;0.60;;;;;;;11.49;97.43;99674.69;6098716;23;20028;-87
2023/09/19 04:51:34;;;;;;;0.50;0.50;;;;;;;11.47;97.18;99676.00;6069975;23;20026;-87
2023/09/19 04:54:02;;;;;;;0.60;0.60;;;;;;;11.48;97.26;99667.63;6095070;23;20374;-86
2023/09/19 04:56:32;;;;;;;0.60;0.60;;;;;;;11.56;97.09;99671.84;6096104;23;20022;-86
2023/09/19 04:58:59;;;;;;;0.63;0.63;;;;;;;11.62;96.94;99667.38;6093812;23;20442;-87
2023/09/19 05:01:28;;;;;;;0.60;0.60;;;;;;;11.63;96.58;99663.66;6093110;23;20031;-86
2023/09/19 05:03:55;;;;;;;0.50;0.50;;;;;;;11.63;96.34;99669.88;6093689;23;20117;-86
2023/09/19 05:06:22;;;;;;;0.57;0.57;;;;;;;11.72;96.31;99667.63;6047053;23;20030;-84
2023/09/19 05:08:51;;;;;;;0.60;0.60;;;;;;;11.75;95.91;99664.47;6096522;23;20018;-86
2023/09/19 05:11:27;;;;;;;0.60;0.60;;;;;;;11.80;95.52;99658.31;6095416;23;20030;-90
2023/09/19 05:13:55;;;;;;;0.60;0.60;;;;;;;11.82;95.13;99657.03;6072531;23;20029;-86
2023/09/19 05:16:23;;;;;;;0.60;0.60;;;;;;;11.88;94.87;99655.31;6065990;23;20055;-84
2023/09/19 05:18:50;;;;;;;0.60;0.60;;;;;;;11.97;94.34;99653.06;6091913;23;20502;-84
2023/09/19 05:21:18;;;;;;;0.50;0.50;;;;;;;11.95;94.17;99656.00;6068948;23;20091;-83
2023/09/19 05:23:49;;;;;;;0.60;0.60;;;;;;;12.03;94.02;99654.81;6068859;23;20025;-86
2023/09/19 05:26:17;;;;;;;0.60;0.60;;;;;;;12.05;93.57;99652.69;6153684;23;20369;-83
2023/09/19 05:28:45;;;;;;;0.55;0.55;;;;;;;12.10;93.09;99656.34;6151782;23;20048;-85
2023/09/19 05:31:12;;;;;;;0.60;0.60;;;;;;;12.30;92.34;99660.50;6152837;23;20092;-86
2023/09/19 05:33:40;;;;;;;0.60;0.60;;;;;;;12.39;91.51;99658.25;6151846;23;20032;-88
2023/09/19 05:36:11;;;;;;;0.60;0.60;;;;;;;12.49;91.31;99648.44;6152900;23;20021;-86
2023/09/19 05:38:44;;;;;;;0.60;0.60;;;;;;;12.50;90.64;99657.38;6153582;23;20021;-84
2023/09/19 05:41:13;;;;;;;0.60;0.60;;;;;;;12.62;90.01;99655.47;6152207;23;20025;-84
2023/09/19 05:43:44;;;;;;;0.50;0.50;;;;;;;12.72;89.61;99661.06;6125131;23;20025;-84
2023/09/19 05:46:11;;;;;;;0.60;0.60;;;;;;;12.76;89.41;99653.25;6153687;23;20031;-85
2023/09/19 05:48:39;;;;;;;0.50;0.50;;;;;;;12.76;88.92;99656.81;6153815;23;20052;-84
2023/09/19 05:51:06;;;;;;;0.60;0.60;;;;;;;12.78;88.99;99654.66;6154061;23;20032;-91
2023/09/19 05:53:35;;;;;;;0.60;0.60;;;;;;;12.88;88.61;99653.22;6153495;23;20409;-86
2023/09/19 05:56:02;;;;;;;0.50;0.50;;;;;;;12.66;88.52;99651.22;6151750;23;20085;-89
2023/09/19 05:58:29;;;;;;;0.57;0.57;;;;;;;12.70;88.78;99656.94;6128914;23;20025;-86
2023/09/19 06:00:57;;;;;;;0.60;0.60;;;;;;;12.68;88.73;99645.53;6129038;23;20353;-88
2023/09/19 06:03:24;;;;;;;0.60;0.60;;;;;;;12.90;88.65;99649.19;6156652;23;20637;-84
2023/09/19 06:05:52;;;;;;;0.60;0.60;;;;;;;13.06;87.55;99654.88;6157407;23;20361;-89
2023/09/19 06:08:23;;;;;;;0.60;0.60;;;;;;;13.30;86.63;99651.00;6129043;23;20021;-89
2023/09/19 06:10:52;;;;;;;0.60;0.60;;;;;;;13.57;86.01;99650.31;6156650;23;20032;-89
2023/09/19 06:13:19;;;;;;;0.50;0.50;;;;;;;13.87;84.30;99644.50;6130397;23;20045;-88
2023/09/19 06:15:52;;;;;;;0.60;0.60;;;;;;;13.94;82.96;99649.75;6158147;23;20021;-89
2023/09/19 06:18:20;;;;;;;0.60;0.60;;;;;;;14.09;82.62;99641.81;6080373;23;20227;-89
2023/09/19 06:20:48;;;;;;;0.57;0.57;;;;;;;14.27;81.75;99632.53;6130562;23;20029;-89
2023/09/19 06:23:21;;;;;;;0.60;0.60;;;;;;;14.31;81.78;99633.66;6130265;23;20048;-89
2023/09/19 06:25:48;;;;;;;0.50;0.50;;;;;;;14.26;81.44;99623.56;6152181;23;20025;-88
2023/09/19 06:28:23;;;;;;;0.60;0.60;;;;;;;14.30;80.80;99630.16;6152399;23;20022;-89
2023/09/19 06:30:54;;;;;;;0.50;0.50;;;;;;;14.36;80.63;99630.19;6152156;23;20053;-89
2023/09/19 06:33:22;;;;;;;0.60;0.60;;;;;;;14.23;80.78;99626.78;6151600;23;20029;-91
2023/09/19 06:35:53;;;;;;;0.50;0.50;;;;;;;14.21;80.98;99638.97;6154560;23;20025;-91
2023/09/19 06:38:20;;;;;;;0.60;0.60;;;;;;;14.03;81.41;99665.34;6130209;23;20407;-90
2023/09/19 06:40:48;;;;;;;0.60;0.60;;;;;;;14.02;82.03;99657.44;6155347;23;20053;-91
2023/09/19 06:43:16;;;;;;;0.50;0.50;;;;;;;14.00;82.39;99648.72;6106821;23;20033;-88
2023/09/19 06:45:43;;;;;;;0.50;0.50;;;;;;;13.87;82.77;99644.50;6152385;23;20032;-86
2023/09/19 06:48:11;;;;;;;0.52;0.52;;;;;;;13.73;83.48;99627.78;6153647;23;20029;-88
2023/09/19 06:50:41;;;;;;;0.60;0.60;;;;;;;13.95;83.43;99645.94;6160712;23;20148;-89
2023/09/19 06:53:09;;;;;;;0.60;0.60;;;;;;;14.06;82.98;99655.88;6109290;23;20025;-88
2023/09/19 06:55:37;;;;;;;0.60;0.60;;;;;;;13.94;82.84;99638.91;6127027;23;20364;-89
2023/09/19 06:58:05;;;;;;;0.60;0.60;;;;;;;14.06;82.80;99662.13;6155858;23;20460;-90
2023/09/19 07:00:36;;;;;;;0.52;0.52;;;;;;;13.96;82.97;99658.47;6156229;23;20026;-89
2023/09/19 07:03:08;;;;;;;0.60;0.60;;;;;;;14.01;83.38;99655.81;6154911;23;20086;-89
2023/09/19 07:05:39;;;;;;;0.60;0.60;;;;;;;14.19;83.04;99641.94;6131228;23;20056;-89
2023/09/19 07:08:09;;;;;;;0.50;0.50;;;;;;;14.34;81.75;99652.16;6132045;23;20065;-89
2023/09/19 07:10:41;;;;;;;0.50;0.50;;;;;;;14.30;81.96;99645.59;6154600;23;20021;-88
2023/09/19 07:13:10;;;;;;;0.50;0.50;;;;;;;14.40;81.24;99640.28;6130124;23;20021;-89
2023/09/19 07:15:41;;;;;;;0.55;0.55;;;;;;;14.42;81.30;99642.75;6156103;23;20021;-89
2023/09/19 07:18:12;;;;;;;0.50;0.50;;;;;;;14.39;81.79;99638.66;6129675;23;20031;-88
2023/09/19 07:20:39;;;;;;;0.60;0.60;;;;;;;14.41;82.05;99627.53;6157167;23;20021;-89
2023/09/19 07:23:06;;;;;;;0.52;0.52;;;;;;;14.54;81.67;99632.59;6159076;23;20025;-89
2023/09/19 07:25:35;;;;;;;0.50;0.50;;;;;;;14.47;81.34;99634.66;6129341;23;20025;-89
2023/09/19 07:28:03;;;;;;;0.50;0.50;;;;;;;14.36;81.57;99639.16;6155371;23;20029;-88
2023/09/19 07:30:31;;;;;;;0.50;0.50;;;;;;;14.25;82.29;99629.25;6153926;23;20424;-90
2023/09/19 07:33:02;;;;;;;0.50;0.50;;;;;;;14.18;82.56;99626.72;6156425;23;20037;-89
2023/09/19 07:35:30;;;;;;;0.60;0.60;;;;;;;14.64;81.81;99627.28;6155727;23;20465;-88
2023/09/19 07:38:01;;;;;;;0.70;0.70;;;;;;;15.56;78.46;99628.03;6157704;23;20023;-89
2023/09/19 07:40:31;;;;;;;0.60;0.60;;;;;;;16.06;76.72;99636.78;6131781;23;20021;-87
2023/09/19 07:43:01;;;;;;;0.50;0.50;;;;;;;16.29;75.06;99632.81;6130659;23;20021;-90
2023/09/19 07:45:29;;;;;;;0.50;0.50;;;;;;;16.25;74.51;99637.13;6157639;23;20017;-88
2023/09/19 07:47:58;;;;;;;0.60;0.60;;;;;;;16.39;74.23;99630.09;6159299;23;20365;-89
2023/09/19 07:50:26;;;;;;;0.50;0.50;;;;;;;16.59;73.31;99632.06;6158617;23;20028;-89
2023/09/19 07:52:54;;;;;;;0.60;0.60;;;;;;;16.82;72.46;99628.06;6133293;23;20073;-88
2023/09/19 07:55:28;;;;;;;0.50;0.50;;;;;;;17.10;71.55;99632.16;6161500;23;20040;-90
2023/09/19 07:57:57;;;;;;;0.60;0.60;;;;;;;17.25;70.64;99622.38;6161369;23;20462;-88
2023/09/19 08:00:24;;;;;;;0.52;0.52;;;;;;;17.31;70.12;99624.78;6137487;23;20028;-89
2023/09/19 08:02:52;;;;;;;0.50;0.50;;;;;;;17.26;69.44;99613.88;6135464;23;20025;-90
2023/09/19 08:05:30;;;;;;;0.60;0.60;;;;;;;16.98;70.47;99609.00;6164649;23;20029;-88
2023/09/19 08:07:59;;;;;;;0.68;0.68;;;;;;;17.73;68.37;99607.28;6134255;23;20029;-89
2023/09/19 08:10:35;;;;;;;0.60;0.60;;;;;;;18.39;65.64;99599.94;6157156;23;20022;-89
2023/09/19 08:13:04;;;;;;;0.60;0.60;;;;;;;18.50;64.54;99606.16;6131550;23;20022;-87
2023/09/19 08:15:31;;;;;;;0.50;0.50;;;;;;;18.01;65.55;99605.03;6159636;23;20069;-89
2023/09/19 08:18:01;;;;;;;0.50;0.50;;;;;;;17.39;68.08;99607.06;6137365;23;20021;-88
2023/09/19 08:20:29;;;;;;;0.70;0.70;;;;;;;18.48;65.61;99603.69;6167491;23;20022;-88
2023/09/19 08:22:57;;;;;;;0.70;0.70;;;;;;;19.44;62.20;99595.06;6157367;23;20022;-89
2023/09/19 08:25:26;;;;;;;0.60;0.60;;;;;;;20.01;59.73;99595.31;6158612;23;20021;-89
2023/09/19 08:27:57;;;;;;;0.63;0.63;;;;;;;20.38;58.33;99588.25;6158033;23;20457;-89
2023/09/19 08:30:27;;;;;;;0.60;0.60;;;;;;;20.84;56.96;99582.94;6133883;23;20026;-90
2023/09/19 08:33:04;;;;;;;0.60;0.60;;;;;;;21.24;55.81;99588.03;6158355;23;20522;-89
2023/09/19 08:35:33;;;;;;;0.60;0.60;;;;;;;21.43;54.89;99583.34;6157354;23;20505;-88
2023/09/19 08:38:03;;;;;;;0.60;0.60;;;;;;;22.10;53.33;99593.84;6106498;23;20021;-89
2023/09/19 08:40:33;;;;;;;0.60;0.60;;;;;;;22.62;51.86;99591.66;6106096;23;20032;-89
2023/09/19 08:43:12;;;;;;;0.60;0.60;;;;;;;22.81;50.51;99596.97;6158026;23;20096;-89
2023/09/19 08:45:50;;;;;;;0.70;0.70;;;;;;;22.53;51.47;99596.25;6053504;23;20049;-89
2023/09/19 08:48:27;;;;;;;0.60;0.60;;;;;;;21.97;52.05;99589.19;6095946;23;20376;-89
2023/09/19 08:51:11;;;;;;;0.50;0.50;;;;;;;20.89;55.12;99582.88;6127003;23;20105;-89
2023/09/19 08:53:46;;;;;;;0.50;0.50;;;;;;;20.76;55.48;99586.34;6127296;23;20057;-89
2023/09/19 08:56:15;;;;;;;0.60;0.60;;;;;;;20.55;56.11;99583.09;6123980;23;20030;-88
2023/09/19 08:58:58;;;;;;;0.60;0.60;;;;;;;21.19;54.95;99577.97;6124130;23;20021;-89
2023/09/19 09:01:29;;;;;;;0.60;0.60;;;;;;;21.69;53.61;99571.88;6100736;23;20026;-89
2023/09/19 09:04:03;;;;;;;0.60;0.60;;;;;;;21.94;52.60;99565.88;6124382;23;20076;-89
2023/09/19 09:06:32;;;;;;;0.60;0.60;;;;;;;22.24;53.06;99560.88;6123786;23;20097;-89
2023/09/19 09:09:03;;;;;;;0.50;0.50;;;;;;;22.29;52.27;99558.84;6124720;23;20026;-86
2023/09/19 09:11:33;;;;;;;0.40;0.40;;;;;;;21.97;52.82;99558.94;6077501;23;20577;-89
2023/09/19 09:14:01;;;;;;;0.50;0.50;;;;;;;21.89;53.21;99562.44;6099426;23;20032;-89
2023/09/19 09:16:30;;;;;;;0.50;0.50;;;;;;;21.67;53.76;99563.13;6123287;23;20386;-89
2023/09/19 09:18:57;;;;;;;0.50;0.50;;;;;;;21.43;54.69;99561.38;6099563;23;20029;-88
2023/09/19 09:21:25;;;;;;;0.40;0.40;;;;;;;21.05;55.09;99563.41;6123708;23;20059;-89
2023/09/19 09:23:56;;;;;;;0.40;0.40;;;;;;;20.67;56.49;99563.47;6152038;23;20109;-89
2023/09/19 09:26:44;;;;;;;0.40;0.40;;;;;;;20.56;57.42;99557.34;6156114;23;20381;-89
2023/09/19 09:29:12;;;;;;;0.60;0.60;;;;;;;20.96;56.43;99553.13;6158986;23;20029;-88
2023/09/19 09:31:42;;;;;;;0.68;0.68;;;;;;;22.55;52.90;99554.69;6156697;23;20052;-89
2023/09/19 09:34:13;;;;;;;0.60;0.60;;;;;;;23.61;49.69;99544.84;6155088;23;20087;-89
2023/09/19 09:36:41;;;;;;;0.40;0.40;;;;;;;23.18;50.00;99545.47;6157503;23;20065;-89
2023/09/19 09:39:24;;;;;;;0.40;0.40;;;;;;;22.24;52.14;99544.41;6159516;23;20025;-89
2023/09/19 09:41:52;;;;;;;0.40;0.40;;;;;;;21.84;53.71;99535.88;6162904;23;20037;-89
2023/09/19 09:44:21;;;;;;;0.50;0.50;;;;;;;22.06;52.92;99526.88;6162261;23;20108;-88
2023/09/19 09:52:16;;;;;;;0.55;0.55;;;;;;;23.40;50.19;99525.34;6104194;23;20049;-89
2023/09/19 09:55:05;;;;;;;0.57;0.57;;;;;;;24.23;49.10;99530.94;6124290;23;20021;-88
2023/09/19 09:57:33;;;;;;;0.40;0.40;;;;;;;24.57;47.37;99528.56;6125381;23;20025;-89
2023/09/19 10:02:45;;;;;;;0.40;0.40;;;;;;;23.22;50.32;99526.34;6126470;23;20517;-89
2023/09/19 10:05:22;;;;;;;0.30;0.30;;;;;;;22.78;50.96;99530.75;6078664;23;20022;-89
2023/09/19 10:08:09;;;;;;;0.50;0.50;;;;;;;23.20;50.84;99529.44;6098130;23;20036;-89
2023/09/19 10:13:15;;;;;;;0.50;0.50;;;;;;;26.17;43.76;99503.31;6056894;23;20159;-89
2023/09/19 10:15:50;;;;;;;0.50;0.50;;;;;;;26.91;43.00;99514.75;6047112;23;20019;-88
2023/09/19 10:18:27;;;;;;;0.50;0.50;;;;;;;27.42;41.27;99515.34;6042725;23;20031;-88
2023/09/19 10:20:57;;;;;;;0.50;0.50;;;;;;;27.51;41.15;99510.50;6065456;23;20023;-89
2023/09/19 10:23:26;;;;;;;0.40;0.40;;;;;;;26.82;42.14;99511.28;6017164;23;20356;-89
2023/09/19 10:25:58;;;;;;;0.40;0.40;;;;;;;27.02;41.79;99502.91;6050860;23;20027;-89
2023/09/19 10:28:30;;;;;;;0.50;0.50;;;;;;;27.15;41.46;99495.44;6076105;23;20035;-90
2023/09/19 10:31:00;;;;;;;0.40;0.40;;;;;;;27.25;41.01;99494.22;6103853;23;20022;-89
2023/09/19 10:33:37;;;;;;;0.50;0.50;;;;;;;27.39;40.75;99494.66;6066342;23;20086;-89
2023/09/19 10:36:08;;;;;;;0.50;0.50;;;;;;;27.39;40.88;99494.66;6071087;23;20091;-89
2023/09/19 10:38:43;;;;;;;0.50;0.50;;;;;;;27.86;39.89;99496.22;6072080;23;20107;-89
2023/09/19 10:41:17;;;;;;;0.50;0.50;;;;;;;28.09;39.21;99489.00;6044603;23;20033;-85
2023/09/19 10:43:48;;;;;;;0.50;0.50;;;;;;;28.12;39.20;99486.69;6065417;23;20455;-88
2023/09/19 10:46:17;;;;;;;0.50;0.50;;;;;;;28.27;39.39;99488.72;6064143;23;20415;-89
2023/09/19 10:48:49;;;;;;;0.50;0.50;;;;;;;28.35;39.32;99481.41;6067542;23;20057;-88
2023/09/19 10:51:42;;;;;;;0.40;0.40;;;;;;;28.96;38.40;99487.50;6041632;23;20022;-88
2023/09/19 10:54:15;;;;;;;0.40;0.40;;;;;;;28.95;37.89;99474.81;6096762;23;20044;-88
2023/09/19 10:56:48;;;;;;;0.50;0.50;;;;;;;28.72;38.19;99471.81;6119649;23;20034;-88
2023/09/19 10:59:20;;;;;;;0.50;0.50;;;;;;;28.86;38.06;99474.16;6123955;23;20033;-89
2023/09/19 11:01:53;;;;;;;0.40;0.40;;;;;;;28.95;38.09;99474.00;6078264;23;20640;-88
2023/09/19 11:04:35;;;;;;;0.50;0.50;;;;;;;29.38;37.35;99464.00;6105680;23;20489;-88
2023/09/19 11:07:12;;;;;;;0.40;0.40;;;;;;;29.60;36.74;99465.34;6075917;23;20481;-89
2023/09/19 11:09:53;;;;;;;0.40;0.40;;;;;;;29.96;36.47;99461.41;6074365;23;20025;-89
2023/09/19 11:15:11;;;;;;;0.47;0.47;;;;;;;30.45;35.77;99466.44;6156907;23;20356;-87
2023/09/19 11:17:42;;;;;;;0.40;0.40;;;;;;;30.70;35.61;99457.00;6157117;23;20365;-88
2023/09/19 11:20:39;;;;;;;0.20;0.20;;;;;;;29.31;37.13;99461.03;6106600;23;20021;-89
2023/09/19 11:23:17;;;;;;;0.20;0.20;;;;;;;28.20;39.22;99461.56;6157793;23;20101;-90
2023/09/19 11:25:53;;;;;;;0.20;0.20;;;;;;;27.69;40.60;99452.06;6156613;23;20021;-89
2023/09/19 11:28:22;;;;;;;0.20;0.20;;;;;;;27.50;40.98;99456.25;6083753;23;20029;-89
2023/09/19 11:30:54;;;;;;;0.20;0.20;;;;;;;26.32;43.26;99447.38;6131734;23;20075;-87
2023/09/19 11:33:28;;;;;;;0.20;0.20;;;;;;;25.54;45.16;99458.94;6130013;23;20036;-85
2023/09/19 11:36:08;;;;;;;0.20;0.20;;;;;;;25.08;45.85;99461.41;6129876;23;20053;-85
2023/09/19 11:38:49;;;;;;;0.30;0.30;;;;;;;25.26;45.84;99453.06;6079159;23;20471;-86
2023/09/19 11:41:29;;;;;;;0.30;0.30;;;;;;;25.55;46.46;99445.94;6156272;23;20030;-85
2023/09/19 11:44:12;;;;;;;0.30;0.30;;;;;;;25.57;45.88;99451.94;6084295;23;20021;-85
2023/09/19 11:46:52;;;;;;;;;;;;;;;25.68;45.20;99447.66;6130553;23;20026;-85
2023/09/19 11:49:29;;;;;;;0.20;0.20;;;;;;;25.31;46.12;99447.38;6129005;23;19952;-86
2023/09/19 11:52:04;;;;;;;0.50;0.50;;;;;;;26.63;44.01;99442.56;6155058;23;20021;-86
2023/09/19 11:54:32;;;;;;;0.30;0.30;;;;;;;28.40;40.40;99432.00;6155788;23;20026;-86
2023/09/19 11:57:11;;;;;;;0.50;0.50;;;;;;;29.95;37.63;99442.28;6135971;23;20029;-85
2023/09/19 11:59:42;;;;;;;0.50;0.50;;;;;;;30.41;36.59;99442.50;6109947;23;20079;-84
2023/09/19 12:02:12;;;;;;;0.30;0.30;;;;;;;29.68;37.91;99431.00;6158354;23;20021;-86
2023/09/19 12:04:43;;;;;;;0.40;0.40;;;;;;;30.53;35.83;99427.63;6158414;23;20377;-84